sensor_id;sensor_type;location;lat;lon;timestamp;pressure;altitude;pressure_sealevel;temperature;humidity
81802;BME280;71199;52.490;5.448;2023-08-17T00:01:29;102336.56;;;16.10;75.75
81802;BME280;71199;52.490;5.448;2023-08-17T00:03:54;102331.91;;;16.10;75.69
81802;BME280;71199;52.490;5.448;2023-08-17T00:06:20;102329.81;;;16.04;75.76
81802;BME280;71199;52.490;5.448;2023-08-17T00:08:45;102337.25;;;16.04;75.39
81802;BME280;71199;52.490;5.448;2023-08-17T00:11:10;102324.59;;;16.01;75.23
81802;BME280;71199;52.490;5.448;2023-08-17T00:13:36;102327.38;;;16.01;75.51
81802;BME280;71199;52.490;5.448;2023-08-17T00:16:01;102329.47;;;15.99;75.28
81802;BME280;71199;52.490;5.448;2023-08-17T00:18:27;102340.72;;;15.98;75.49
81802;BME280;71199;52.490;5.448;2023-08-17T00:20:52;102332.22;;;15.99;75.58
81802;BME280;71199;52.490;5.448;2023-08-17T00:23:18;102331.38;;;15.99;75.57
81802;BME280;71199;52.490;5.448;2023-08-17T00:25:44;102329.13;;;15.94;75.78
81802;BME280;71199;52.490;5.448;2023-08-17T00:28:09;102328.25;;;16.02;75.53
81802;BME280;71199;52.490;5.448;2023-08-17T00:30:34;102331.38;;;15.99;75.66
81802;BME280;71199;52.490;5.448;2023-08-17T00:33:02;102332.59;;;15.96;75.65
81802;BME280;71199;52.490;5.448;2023-08-17T00:35:28;102324.28;;;15.96;75.68
81802;BME280;71199;52.490;5.448;2023-08-17T00:37:53;102322.88;;;15.92;75.83
81802;BME280;71199;52.490;5.448;2023-08-17T00:40:19;102327.38;;;15.93;75.90
81802;BME280;71199;52.490;5.448;2023-08-17T00:42:44;102321.50;;;15.88;76.18
81802;BME280;71199;52.490;5.448;2023-08-17T00:45:10;102322.53;;;15.87;76.04
81802;BME280;71199;52.490;5.448;2023-08-17T00:47:35;102315.59;;;15.91;75.94
81802;BME280;71199;52.490;5.448;2023-08-17T00:50:01;102317.50;;;15.90;76.02
81802;BME280;71199;52.490;5.448;2023-08-17T00:52:27;102315.59;;;15.83;76.27
81802;BME280;71199;52.490;5.448;2023-08-17T00:54:54;102312.13;;;15.81;76.55
81802;BME280;71199;52.490;5.448;2023-08-17T00:57:20;102317.34;;;15.84;76.07
81802;BME280;71199;52.490;5.448;2023-08-17T00:59:46;102311.59;;;15.77;76.53
81802;BME280;71199;52.490;5.448;2023-08-17T01:02:11;102306.94;;;15.78;76.65
81802;BME280;71199;52.490;5.448;2023-08-17T01:04:37;102303.81;;;15.81;76.36
81802;BME280;71199;52.490;5.448;2023-08-17T01:07:02;102302.41;;;15.77;76.66
81802;BME280;71199;52.490;5.448;2023-08-17T01:09:28;102300.50;;;15.77;76.43
81802;BME280;71199;52.490;5.448;2023-08-17T01:12:32;102310.03;;;15.75;76.86
81802;BME280;71199;52.490;5.448;2023-08-17T01:15:11;102301.38;;;15.69;77.06
81802;BME280;71199;52.490;5.448;2023-08-17T01:18:01;102297.25;;;15.74;76.71
81802;BME280;71199;52.490;5.448;2023-08-17T01:20:31;102297.53;;;15.70;76.72
81802;BME280;71199;52.490;5.448;2023-08-17T01:23:05;102290.28;;;15.61;77.08
81802;BME280;71199;52.490;5.448;2023-08-17T01:25:31;102288.72;;;15.67;76.98
81802;BME280;71199;52.490;5.448;2023-08-17T01:28:01;102292.34;;;15.59;77.12
81802;BME280;71199;52.490;5.448;2023-08-17T01:30:27;102294.25;;;15.50;77.52
81802;BME280;71199;52.490;5.448;2023-08-17T01:33:08;102304.78;;;15.47;77.94
81802;BME280;71199;52.490;5.448;2023-08-17T01:35:38;102301.31;;;15.45;77.85
81802;BME280;71199;52.490;5.448;2023-08-17T01:38:07;102289.38;;;15.44;77.72
81802;BME280;71199;52.490;5.448;2023-08-17T01:40:34;102291.25;;;15.44;77.81
81802;BME280;71199;52.490;5.448;2023-08-17T01:43:02;102294.56;;;15.39;78.14
81802;BME280;71199;52.490;5.448;2023-08-17T01:45:28;102292.13;;;15.36;78.36
81802;BME280;71199;52.490;5.448;2023-08-17T01:47:55;102298.88;;;15.34;78.22
81802;BME280;71199;52.490;5.448;2023-08-17T01:50:20;102293.69;;;15.30;78.51
81802;BME280;71199;52.490;5.448;2023-08-17T01:52:46;102303.53;;;15.33;78.35
81802;BME280;71199;52.490;5.448;2023-08-17T01:55:11;102291.94;;;15.29;78.51
81802;BME280;71199;52.490;5.448;2023-08-17T01:57:36;102297.47;;;15.29;78.58
81802;BME280;71199;52.490;5.448;2023-08-17T02:00:06;102292.28;;;15.26;78.91
81802;BME280;71199;52.490;5.448;2023-08-17T02:02:32;102289.16;;;15.29;78.61
81802;BME280;71199;52.490;5.448;2023-08-17T02:04:57;102290.53;;;15.25;79.02
81802;BME280;71199;52.490;5.448;2023-08-17T02:07:22;102284.97;;;15.17;79.38
81802;BME280;71199;52.490;5.448;2023-08-17T02:09:48;102296.94;;;15.18;79.41
81802;BME280;71199;52.490;5.448;2023-08-17T02:12:13;102299.50;;;15.11;79.59
81802;BME280;71199;52.490;5.448;2023-08-17T02:14:38;102301.56;;;15.09;79.77
81802;BME280;71199;52.490;5.448;2023-08-17T02:17:04;102301.25;;;15.12;79.71
81802;BME280;71199;52.490;5.448;2023-08-17T02:19:31;102296.03;;;15.09;79.79
81802;BME280;71199;52.490;5.448;2023-08-17T02:21:56;102299.31;;;15.04;79.92
81802;BME280;71199;52.490;5.448;2023-08-17T02:24:22;102305.38;;;15.08;79.82
81802;BME280;71199;52.490;5.448;2023-08-17T02:26:47;102301.41;;;15.10;79.73
81802;BME280;71199;52.490;5.448;2023-08-17T02:29:12;102301.91;;;15.06;79.92
81802;BME280;71199;52.490;5.448;2023-08-17T02:31:38;102298.09;;;15.07;79.86
81802;BME280;71199;52.490;5.448;2023-08-17T02:34:03;102290.31;;;15.02;80.03
81802;BME280;71199;52.490;5.448;2023-08-17T02:36:31;102286.31;;;15.05;80.01
81802;BME280;71199;52.490;5.448;2023-08-17T02:38:56;102286.28;;;14.97;80.49
81802;BME280;71199;52.490;5.448;2023-08-17T02:41:21;102288.03;;;14.98;80.42
81802;BME280;71199;52.490;5.448;2023-08-17T02:43:47;102278.00;;;14.97;80.67
81802;BME280;71199;52.490;5.448;2023-08-17T02:46:12;102275.41;;;14.95;80.25
81802;BME280;71199;52.490;5.448;2023-08-17T02:48:38;102281.28;;;15.00;80.08
81802;BME280;71199;52.490;5.448;2023-08-17T02:51:03;102279.22;;;15.02;80.18
81802;BME280;71199;52.490;5.448;2023-08-17T02:53:28;102278.38;;;15.02;80.15
81802;BME280;71199;52.490;5.448;2023-08-17T02:55:54;102274.56;;;15.03;79.87
81802;BME280;71199;52.490;5.448;2023-08-17T02:58:19;102268.16;;;15.02;80.27
81802;BME280;71199;52.490;5.448;2023-08-17T03:00:45;102283.41;;;15.06;79.68
81802;BME280;71199;52.490;5.448;2023-08-17T03:03:10;102270.94;;;15.10;79.82
81802;BME280;71199;52.490;5.448;2023-08-17T03:05:36;102273.56;;;15.12;79.61
81802;BME280;71199;52.490;5.448;2023-08-17T03:08:01;102274.94;;;15.16;79.31
81802;BME280;71199;52.490;5.448;2023-08-17T03:10:26;102269.44;;;15.24;79.07
81802;BME280;71199;52.490;5.448;2023-08-17T03:12:52;102266.66;;;15.24;78.68
81802;BME280;71199;52.490;5.448;2023-08-17T03:15:17;102278.28;;;15.28;78.40
81802;BME280;71199;52.490;5.448;2023-08-17T03:17:43;102274.28;;;15.30;78.50
81802;BME280;71199;52.490;5.448;2023-08-17T03:20:08;102266.69;;;15.32;78.50
81802;BME280;71199;52.490;5.448;2023-08-17T03:22:34;102280.53;;;15.32;78.26
81802;BME280;71199;52.490;5.448;2023-08-17T03:25:00;102271.16;;;15.34;78.19
81802;BME280;71199;52.490;5.448;2023-08-17T03:27:25;102262.19;;;15.40;77.94
81802;BME280;71199;52.490;5.448;2023-08-17T03:29:51;102266.34;;;15.44;77.43
81802;BME280;71199;52.490;5.448;2023-08-17T03:32:16;102269.09;;;15.44;77.63
81802;BME280;71199;52.490;5.448;2023-08-17T03:34:42;102272.75;;;15.44;77.69
81802;BME280;71199;52.490;5.448;2023-08-17T03:37:07;102271.88;;;15.44;77.41
81802;BME280;71199;52.490;5.448;2023-08-17T03:39:33;102279.34;;;15.43;77.63
81802;BME280;71199;52.490;5.448;2023-08-17T03:41:58;102270.00;;;15.44;77.57
81802;BME280;71199;52.490;5.448;2023-08-17T03:44:23;102267.91;;;15.38;77.79
81802;BME280;71199;52.490;5.448;2023-08-17T03:46:49;102275.53;;;15.36;77.81
81802;BME280;71199;52.490;5.448;2023-08-17T03:49:14;102270.31;;;15.33;77.82
81802;BME280;71199;52.490;5.448;2023-08-17T03:51:40;102272.91;;;15.35;77.90
81802;BME280;71199;52.490;5.448;2023-08-17T03:54:05;102270.66;;;15.30;78.01
81802;BME280;71199;52.490;5.448;2023-08-17T03:56:31;102265.63;;;15.34;77.75
81802;BME280;71199;52.490;5.448;2023-08-17T03:58:56;102260.06;;;15.25;77.84
81802;BME280;71199;52.490;5.448;2023-08-17T04:01:21;102265.28;;;15.28;78.32
81802;BME280;71199;52.490;5.448;2023-08-17T04:03:47;102271.00;;;15.27;78.43
81802;BME280;71199;52.490;5.448;2023-08-17T04:06:12;102269.78;;;15.29;78.33
81802;BME280;71199;52.490;5.448;2023-08-17T04:08:38;102274.13;;;15.32;78.05
81802;BME280;71199;52.490;5.448;2023-08-17T04:11:04;102272.06;;;15.34;77.93
81802;BME280;71199;52.490;5.448;2023-08-17T04:13:30;102274.63;;;15.36;77.73
81802;BME280;71199;52.490;5.448;2023-08-17T04:15:56;102276.91;;;15.40;77.53
81802;BME280;71199;52.490;5.448;2023-08-17T04:18:21;102273.63;;;15.45;77.54
81802;BME280;71199;52.490;5.448;2023-08-17T04:20:46;102270.31;;;15.41;77.48
81802;BME280;71199;52.490;5.448;2023-08-17T04:23:12;102271.88;;;15.44;77.56
81802;BME280;71199;52.490;5.448;2023-08-17T04:25:37;102271.88;;;15.44;77.34
81802;BME280;71199;52.490;5.448;2023-08-17T04:28:03;102277.25;;;15.45;77.56
81802;BME280;71199;52.490;5.448;2023-08-17T04:30:28;102277.09;;;15.47;77.69
81802;BME280;71199;52.490;5.448;2023-08-17T04:32:54;102279.16;;;15.45;77.93
81802;BME280;71199;52.490;5.448;2023-08-17T04:35:20;102266.00;;;15.47;77.66
81802;BME280;71199;52.490;5.448;2023-08-17T04:37:46;102268.63;;;15.48;77.72
81802;BME280;71199;52.490;5.448;2023-08-17T04:40:12;102265.66;;;15.50;77.86
81802;BME280;71199;52.490;5.448;2023-08-17T04:42:37;102281.09;;;15.52;77.74
81802;BME280;71199;52.490;5.448;2023-08-17T04:45:03;102269.81;;;15.54;77.81
81802;BME280;71199;52.490;5.448;2023-08-17T04:47:29;102262.38;;;15.55;77.77
81802;BME280;71199;52.490;5.448;2023-08-17T04:49:54;102261.00;;;15.50;77.81
81802;BME280;71199;52.490;5.448;2023-08-17T04:52:19;102262.38;;;15.55;77.89
81802;BME280;71199;52.490;5.448;2023-08-17T04:54:45;102249.91;;;15.50;78.11
81802;BME280;71199;52.490;5.448;2023-08-17T04:57:10;102254.94;;;15.47;78.32
81802;BME280;71199;52.490;5.448;2023-08-17T04:59:36;102250.41;;;15.46;78.47
81802;BME280;71199;52.490;5.448;2023-08-17T05:02:01;102266.00;;;15.39;78.77
81802;BME280;71199;52.490;5.448;2023-08-17T05:04:27;102257.16;;;15.43;78.70
81802;BME280;71199;52.490;5.448;2023-08-17T05:06:52;102251.63;;;15.43;78.82
81802;BME280;71199;52.490;5.448;2023-08-17T05:09:18;102258.03;;;15.44;78.93
81802;BME280;71199;52.490;5.448;2023-08-17T05:11:43;102262.72;;;15.43;78.95
81802;BME280;71199;52.490;5.448;2023-08-17T05:14:09;102264.47;;;15.44;79.14
81802;BME280;71199;52.490;5.448;2023-08-17T05:16:34;102263.25;;;15.47;79.06
81802;BME280;71199;52.490;5.448;2023-08-17T05:19:00;102260.81;;;15.52;78.77
81802;BME280;71199;52.490;5.448;2023-08-17T05:21:25;102260.47;;;15.55;78.64
81802;BME280;71199;52.490;5.448;2023-08-17T05:23:51;102267.41;;;15.59;78.89
81802;BME280;71199;52.490;5.448;2023-08-17T05:26:16;102256.16;;;15.61;78.53
81802;BME280;71199;52.490;5.448;2023-08-17T05:28:42;102260.66;;;15.70;77.85
81802;BME280;71199;52.490;5.448;2023-08-17T05:31:08;102259.63;;;15.79;78.15
81802;BME280;71199;52.490;5.448;2023-08-17T05:33:34;102268.16;;;15.86;77.63
81802;BME280;71199;52.490;5.448;2023-08-17T05:35:59;102265.53;;;15.93;77.63
81802;BME280;71199;52.490;5.448;2023-08-17T05:38:25;102268.47;;;15.99;77.34
81802;BME280;71199;52.490;5.448;2023-08-17T05:40:55;102263.44;;;16.11;76.68
81802;BME280;71199;52.490;5.448;2023-08-17T05:43:20;102267.75;;;16.14;76.52
81802;BME280;71199;52.490;5.448;2023-08-17T05:45:46;102269.13;;;16.18;76.44
81802;BME280;71199;52.490;5.448;2023-08-17T05:48:11;102270.19;;;16.17;76.45
81802;BME280;71199;52.490;5.448;2023-08-17T05:50:36;102264.97;;;16.14;76.45
81802;BME280;71199;52.490;5.448;2023-08-17T05:53:02;102262.22;;;16.14;76.65
81802;BME280;71199;52.490;5.448;2023-08-17T05:55:27;102274.16;;;16.14;76.26
81802;BME280;71199;52.490;5.448;2023-08-17T05:57:53;102265.69;;;16.07;76.74
81802;BME280;71199;52.490;5.448;2023-08-17T06:00:18;102275.75;;;16.00;76.60
81802;BME280;71199;52.490;5.448;2023-08-17T06:02:43;102267.44;;;16.08;76.73
81802;BME280;71199;52.490;5.448;2023-08-17T06:05:15;102273.69;;;16.02;76.98
81802;BME280;71199;52.490;5.448;2023-08-17T06:07:40;102281.31;;;16.00;76.95
81802;BME280;71199;52.490;5.448;2023-08-17T06:10:06;102281.28;;;16.17;76.31
81802;BME280;71199;52.490;5.448;2023-08-17T06:12:32;102277.59;;;16.24;76.21
81802;BME280;71199;52.490;5.448;2023-08-17T06:14:57;102263.91;;;16.39;75.67
81802;BME280;71199;52.490;5.448;2023-08-17T06:17:22;102271.34;;;16.30;75.92
81802;BME280;71199;52.490;5.448;2023-08-17T06:19:48;102281.94;;;16.43;75.46
81802;BME280;71199;52.490;5.448;2023-08-17T06:22:13;102270.47;;;16.46;75.48
81802;BME280;71199;52.490;5.448;2023-08-17T06:24:39;102273.75;;;16.50;75.37
81802;BME280;71199;52.490;5.448;2023-08-17T06:27:04;102274.28;;;16.54;75.20
81802;BME280;71199;52.490;5.448;2023-08-17T06:29:29;102277.22;;;16.52;75.19
81802;BME280;71199;52.490;5.448;2023-08-17T06:31:55;102280.53;;;16.47;75.31
81802;BME280;71199;52.490;5.448;2023-08-17T06:34:20;102272.22;;;16.39;75.70
81802;BME280;71199;52.490;5.448;2023-08-17T06:36:59;102282.25;;;16.48;75.52
81802;BME280;71199;52.490;5.448;2023-08-17T06:39:25;102278.94;;;16.53;75.03
81802;BME280;71199;52.490;5.448;2023-08-17T06:41:50;102283.78;;;16.51;75.25
81802;BME280;71199;52.490;5.448;2023-08-17T06:44:15;102281.16;;;16.66;74.73
81802;BME280;71199;52.490;5.448;2023-08-17T06:46:41;102297.47;;;16.61;74.66
81802;BME280;71199;52.490;5.448;2023-08-17T06:49:06;102287.44;;;16.51;74.84
81802;BME280;71199;52.490;5.448;2023-08-17T06:51:33;102289.84;;;16.55;74.85
81802;BME280;71199;52.490;5.448;2023-08-17T06:53:59;102287.59;;;16.58;74.52
81802;BME280;71199;52.490;5.448;2023-08-17T06:56:25;102290.91;;;16.62;74.48
81802;BME280;71199;52.490;5.448;2023-08-17T06:58:50;102300.75;;;16.64;74.52
81802;BME280;71199;52.490;5.448;2023-08-17T07:01:16;102282.34;;;16.71;74.10
81802;BME280;71199;52.490;5.448;2023-08-17T07:03:41;102285.66;;;16.67;74.41
81802;BME280;71199;52.490;5.448;2023-08-17T07:06:08;102286.34;;;16.69;74.14
81802;BME280;71199;52.490;5.448;2023-08-17T07:08:33;102277.13;;;16.77;74.28
81802;BME280;71199;52.490;5.448;2023-08-17T07:10:59;102284.59;;;16.76;74.46
81802;BME280;71199;52.490;5.448;2023-08-17T07:13:24;102286.34;;;16.69;74.51
81802;BME280;71199;52.490;5.448;2023-08-17T07:15:50;102292.03;;;16.84;73.82
81802;BME280;71199;52.490;5.448;2023-08-17T07:18:15;102277.97;;;16.85;73.56
81802;BME280;71199;52.490;5.448;2023-08-17T07:20:40;102287.72;;;16.81;73.66
81802;BME280;71199;52.490;5.448;2023-08-17T07:23:06;102291.19;;;16.83;73.67
81802;BME280;71199;52.490;5.448;2023-08-17T07:25:31;102292.22;;;16.90;73.35
81802;BME280;71199;52.490;5.448;2023-08-17T07:27:57;102291.50;;;16.97;73.33
81802;BME280;71199;52.490;5.448;2023-08-17T07:30:23;102300.00;;;16.95;73.15
81802;BME280;71199;52.490;5.448;2023-08-17T07:32:48;102298.97;;;16.88;73.62
81802;BME280;71199;52.490;5.448;2023-08-17T07:35:14;102296.66;;;17.00;73.03
81802;BME280;71199;52.490;5.448;2023-08-17T07:37:39;102298.03;;;17.04;72.71
81802;BME280;71199;52.490;5.448;2023-08-17T07:40:05;102293.28;;;17.12;72.51
81802;BME280;71199;52.490;5.448;2023-08-17T07:42:31;102294.50;;;17.18;72.57
81802;BME280;71199;52.490;5.448;2023-08-17T07:44:56;102294.50;;;17.18;72.52
81802;BME280;71199;52.490;5.448;2023-08-17T07:47:21;102290.06;;;17.32;72.35
81802;BME280;71199;52.490;5.448;2023-08-17T07:49:47;102284.53;;;17.55;71.59
81802;BME280;71199;52.490;5.448;2023-08-17T07:52:12;102283.22;;;17.66;71.32
81802;BME280;71199;52.490;5.448;2023-08-17T07:54:38;102294.41;;;17.58;71.26
81802;BME280;71199;52.490;5.448;2023-08-17T07:57:03;102286.63;;;17.76;70.72
81802;BME280;71199;52.490;5.448;2023-08-17T07:59:29;102285.56;;;17.85;70.73
81802;BME280;71199;52.490;5.448;2023-08-17T08:01:54;102277.59;;;18.20;69.40
81802;BME280;71199;52.490;5.448;2023-08-17T08:04:20;102280.69;;;18.70;68.06
81802;BME280;71199;52.490;5.448;2023-08-17T08:06:46;102286.72;;;18.59;67.59
81802;BME280;71199;52.490;5.448;2023-08-17T08:09:11;102299.78;;;18.58;67.81
81802;BME280;71199;52.490;5.448;2023-08-17T08:11:37;102309.38;;;18.56;67.27
81802;BME280;71199;52.490;5.448;2023-08-17T08:14:03;102300.25;;;18.77;66.97
81802;BME280;71199;52.490;5.448;2023-08-17T08:16:28;102295.94;;;18.74;66.98
81802;BME280;71199;52.490;5.448;2023-08-17T08:18:57;102304.59;;;18.79;67.14
81802;BME280;71199;52.490;5.448;2023-08-17T08:21:22;102300.63;;;19.18;66.09
81802;BME280;71199;52.490;5.448;2023-08-17T08:23:48;102308.13;;;19.18;65.43
81802;BME280;71199;52.490;5.448;2023-08-17T08:26:13;102292.75;;;19.22;64.45
81802;BME280;71199;52.490;5.448;2023-08-17T08:28:39;102282.44;;;19.59;64.38
81802;BME280;71199;52.490;5.448;2023-08-17T08:31:04;102284.50;;;19.50;64.02
81802;BME280;71199;52.490;5.448;2023-08-17T08:33:30;102291.66;;;19.59;64.52
81802;BME280;71199;52.490;5.448;2023-08-17T08:35:56;102285.91;;;19.24;64.79
81802;BME280;71199;52.490;5.448;2023-08-17T08:38:22;102282.78;;;19.70;64.12
81802;BME280;71199;52.490;5.448;2023-08-17T08:40:48;102289.97;;;19.80;64.12
81802;BME280;71199;52.490;5.448;2023-08-17T08:43:17;102299.22;;;19.65;64.29
81802;BME280;71199;52.490;5.448;2023-08-17T08:45:42;102287.78;;;19.75;64.26
81802;BME280;71199;52.490;5.448;2023-08-17T08:48:11;102289.13;;;19.79;63.44
81802;BME280;71199;52.490;5.448;2023-08-17T08:50:39;102285.31;;;19.87;63.31
81802;BME280;71199;52.490;5.448;2023-08-17T08:53:10;102280.84;;;20.14;62.98
81802;BME280;71199;52.490;5.448;2023-08-17T08:55:47;102273.97;;;20.17;62.85
81802;BME280;71199;52.490;5.448;2023-08-17T08:58:17;102285.16;;;20.17;61.92
81802;BME280;71199;52.490;5.448;2023-08-17T09:00:46;102271.28;;;20.02;62.91
81802;BME280;71199;52.490;5.448;2023-08-17T09:03:14;102273.09;;;20.44;61.75
81802;BME280;71199;52.490;5.448;2023-08-17T09:05:41;102272.97;;;20.24;60.94
81802;BME280;71199;52.490;5.448;2023-08-17T09:08:08;102268.84;;;19.92;61.49
81802;BME280;71199;52.490;5.448;2023-08-17T09:10:35;102268.94;;;20.05;61.62
81802;BME280;71199;52.490;5.448;2023-08-17T09:13:00;102272.91;;;20.18;61.07
81802;BME280;71199;52.490;5.448;2023-08-17T09:15:25;102279.84;;;20.00;61.97
81802;BME280;71199;52.490;5.448;2023-08-17T09:17:51;102266.41;;;20.10;61.50
81802;BME280;71199;52.490;5.448;2023-08-17T09:20:44;102261.69;;;20.11;61.05
81802;BME280;71199;52.490;5.448;2023-08-17T09:23:18;102266.06;;;19.92;62.09
81802;BME280;71199;52.490;5.448;2023-08-17T09:25:48;102266.13;;;20.27;60.90
81802;BME280;71199;52.490;5.448;2023-08-17T09:28:16;102264.66;;;20.31;61.12
81802;BME280;71199;52.490;5.448;2023-08-17T09:30:58;102262.09;;;20.36;60.73
81802;BME280;71199;52.490;5.448;2023-08-17T09:33:26;102262.91;;;20.30;60.94
81802;BME280;71199;52.490;5.448;2023-08-17T09:35:53;102268.75;;;20.07;61.58
81802;BME280;71199;52.490;5.448;2023-08-17T09:38:20;102261.19;;;20.29;61.28
81802;BME280;71199;52.490;5.448;2023-08-17T09:40:46;102269.75;;;20.27;61.55
81802;BME280;71199;52.490;5.448;2023-08-17T09:43:11;102240.19;;;20.05;61.91
81802;BME280;71199;52.490;5.448;2023-08-17T09:45:37;102243.25;;;19.88;62.88
81802;BME280;71199;52.490;5.448;2023-08-17T09:48:04;102244.59;;;20.21;62.39
81802;BME280;71199;52.490;5.448;2023-08-17T09:50:30;102231.50;;;20.21;62.49
81802;BME280;71199;52.490;5.448;2023-08-17T09:52:55;102242.19;;;20.18;61.98
81802;BME280;71199;52.490;5.448;2023-08-17T09:55:24;102239.88;;;20.21;62.58
81802;BME280;71199;52.490;5.448;2023-08-17T09:57:50;102236.56;;;20.39;62.65
81802;BME280;71199;52.490;5.448;2023-08-17T10:00:17;102253.09;;;20.69;61.13
81802;BME280;71199;52.490;5.448;2023-08-17T10:02:44;102229.00;;;20.61;61.17
81802;BME280;71199;52.490;5.448;2023-08-17T10:05:16;102228.41;;;20.44;61.78
81802;BME280;71199;52.490;5.448;2023-08-17T10:07:43;102226.88;;;20.63;61.64
81802;BME280;71199;52.490;5.448;2023-08-17T10:10:11;102234.25;;;20.43;62.75
81802;BME280;71199;52.490;5.448;2023-08-17T10:12:44;102219.03;;;20.52;61.79
81802;BME280;71199;52.490;5.448;2023-08-17T10:15:13;102224.31;;;20.40;61.72
81802;BME280;71199;52.490;5.448;2023-08-17T10:18:12;102223.22;;;20.35;61.66
81802;BME280;71199;52.490;5.448;2023-08-17T10:20:42;102220.47;;;20.41;61.67
81802;BME280;71199;52.490;5.448;2023-08-17T10:23:14;102221.28;;;20.35;61.56
81802;BME280;71199;52.490;5.448;2023-08-17T10:25:41;102222.56;;;20.32;61.44
81802;BME280;71199;52.490;5.448;2023-08-17T10:28:09;102210.44;;;20.19;61.28
81802;BME280;71199;52.490;5.448;2023-08-17T10:30:36;102214.19;;;20.32;61.01
81802;BME280;71199;52.490;5.448;2023-08-17T10:33:02;102221.41;;;20.55;60.68
81802;BME280;71199;52.490;5.448;2023-08-17T10:35:30;102216.19;;;20.45;61.21
81802;BME280;71199;52.490;5.448;2023-08-17T10:37:56;102226.53;;;20.51;61.04
81802;BME280;71199;52.490;5.448;2023-08-17T10:40:28;102218.97;;;20.73;60.01
81802;BME280;71199;52.490;5.448;2023-08-17T10:42:55;102211.31;;;20.96;59.79
81802;BME280;71199;52.490;5.448;2023-08-17T10:50:35;102212.31;;;21.43;58.38
81802;BME280;71199;52.490;5.448;2023-08-17T10:53:19;102218.81;;;20.95;59.49
81802;BME280;71199;52.490;5.448;2023-08-17T10:55:45;102220.13;;;20.58;60.75
81802;BME280;71199;52.490;5.448;2023-08-17T10:58:14;102224.16;;;20.48;61.12
81802;BME280;71199;52.490;5.448;2023-08-17T11:00:40;102219.44;;;20.84;59.76
81802;BME280;71199;52.490;5.448;2023-08-17T11:03:08;102214.72;;;20.91;59.67
81802;BME280;71199;52.490;5.448;2023-08-17T11:05:41;102211.47;;;20.87;60.37
81802;BME280;71199;52.490;5.448;2023-08-17T11:08:08;102218.78;;;20.82;60.76
81802;BME280;71199;52.490;5.448;2023-08-17T11:10:39;102217.22;;;20.72;60.94
81802;BME280;71199;52.490;5.448;2023-08-17T11:13:05;102218.75;;;20.75;60.88
81802;BME280;71199;52.490;5.448;2023-08-17T11:15:42;102215.59;;;20.57;61.50
81802;BME280;71199;52.490;5.448;2023-08-17T11:18:09;102207.66;;;20.53;62.08
81802;BME280;71199;52.490;5.448;2023-08-17T11:20:36;102207.84;;;20.52;61.94
81802;BME280;71199;52.490;5.448;2023-08-17T11:23:04;102208.69;;;20.87;60.80
81802;BME280;71199;52.490;5.448;2023-08-17T11:25:31;102203.25;;;20.72;61.06
81802;BME280;71199;52.490;5.448;2023-08-17T11:27:59;102208.22;;;20.77;61.05
81802;BME280;71199;52.490;5.448;2023-08-17T11:30:25;102199.34;;;20.60;61.67
81802;BME280;71199;52.490;5.448;2023-08-17T11:32:52;102204.19;;;20.45;62.18
81802;BME280;71199;52.490;5.448;2023-08-17T11:35:18;102206.22;;;20.29;63.07
81802;BME280;71199;52.490;5.448;2023-08-17T11:37:44;102197.41;;;20.61;62.49
81802;BME280;71199;52.490;5.448;2023-08-17T11:40:12;102198.44;;;20.53;62.11
81802;BME280;71199;52.490;5.448;2023-08-17T11:42:38;102210.78;;;20.72;61.93
81802;BME280;71199;52.490;5.448;2023-08-17T11:45:06;102189.31;;;20.79;61.75
81802;BME280;71199;52.490;5.448;2023-08-17T11:47:39;102198.22;;;21.03;61.06
81802;BME280;71199;52.490;5.448;2023-08-17T11:50:06;102192.75;;;20.75;61.71
81802;BME280;71199;52.490;5.448;2023-08-17T11:52:33;102197.75;;;20.92;61.36
81802;BME280;71199;52.490;5.448;2023-08-17T11:54:59;102188.06;;;20.88;61.36
81802;BME280;71199;52.490;5.448;2023-08-17T11:57:25;102195.84;;;21.00;61.27
81802;BME280;71199;52.490;5.448;2023-08-17T11:59:54;102201.16;;;20.81;62.00
81802;BME280;71199;52.490;5.448;2023-08-17T12:02:22;102201.75;;;20.70;62.45
81802;BME280;71199;52.490;5.448;2023-08-17T12:04:49;102212.22;;;21.09;61.64
81802;BME280;71199;52.490;5.448;2023-08-17T12:07:15;102202.13;;;21.15;60.96
81802;BME280;71199;52.490;5.448;2023-08-17T12:09:45;102204.66;;;20.97;61.49
81802;BME280;71199;52.490;5.448;2023-08-17T12:12:11;102196.81;;;20.72;61.93
81802;BME280;71199;52.490;5.448;2023-08-17T12:14:41;102198.47;;;20.60;62.57
81802;BME280;71199;52.490;5.448;2023-08-17T12:17:07;102203.91;;;20.68;62.55
81802;BME280;71199;52.490;5.448;2023-08-17T12:19:32;102194.03;;;20.72;62.33
81802;BME280;71199;52.490;5.448;2023-08-17T12:21:57;102194.31;;;20.84;62.45
81802;BME280;71199;52.490;5.448;2023-08-17T12:24:24;102190.75;;;21.23;61.45
81802;BME280;71199;52.490;5.448;2023-08-17T12:26:49;102181.59;;;21.56;60.26
81802;BME280;71199;52.490;5.448;2023-08-17T12:29:15;102187.31;;;21.21;60.66
81802;BME280;71199;52.490;5.448;2023-08-17T12:31:40;102179.38;;;21.31;60.54
81802;BME280;71199;52.490;5.448;2023-08-17T12:34:06;102176.13;;;21.34;60.73
81802;BME280;71199;52.490;5.448;2023-08-17T12:36:35;102177.44;;;21.39;60.65
81802;BME280;71199;52.490;5.448;2023-08-17T12:39:03;102171.00;;;21.45;60.81
81802;BME280;71199;52.490;5.448;2023-08-17T12:41:29;102162.41;;;21.53;60.25
81802;BME280;71199;52.490;5.448;2023-08-17T12:43:54;102172.53;;;21.81;59.68
81802;BME280;71199;52.490;5.448;2023-08-17T12:46:20;102164.56;;;21.78;59.89
81802;BME280;71199;52.490;5.448;2023-08-17T12:48:45;102165.63;;;21.70;60.09
81802;BME280;71199;52.490;5.448;2023-08-17T12:51:10;102159.41;;;21.81;59.73
81802;BME280;71199;52.490;5.448;2023-08-17T12:53:36;102154.19;;;22.05;59.57